sensor_id;sensor_type;location;lat;lon;timestamp;P1;durP1;ratioP1;P2;durP2;ratioP2
65230;SDS011;51813;40.666;16.602;2023-07-29T00:01:33;3.10;;;1.80;;
65230;SDS011;51813;40.666;16.602;2023-07-29T00:04:00;4.68;;;1.90;;
65230;SDS011;51813;40.666;16.602;2023-07-29T00:06:26;4.68;;;1.92;;
65230;SDS011;51813;40.666;16.602;2023-07-29T00:08:52;3.38;;;1.80;;
65230;SDS011;51813;40.666;16.602;2023-07-29T00:11:18;4.07;;;2.05;;
65230;SDS011;51813;40.666;16.602;2023-07-29T00:13:43;4.22;;;1.90;;
65230;SDS011;51813;40.666;16.602;2023-07-29T00:16:09;3.95;;;1.98;;
65230;SDS011;51813;40.666;16.602;2023-07-29T00:18:35;3.65;;;1.75;;
65230;SDS011;51813;40.666;16.602;2023-07-29T00:21:00;4.38;;;2.00;;
65230;SDS011;51813;40.666;16.602;2023-07-29T00:23:26;5.30;;;1.80;;
65230;SDS011;51813;40.666;16.602;2023-07-29T00:25:52;4.60;;;2.05;;
65230;SDS011;51813;40.666;16.602;2023-07-29T00:28:18;3.40;;;1.80;;
65230;SDS011;51813;40.666;16.602;2023-07-29T00:30:44;4.07;;;2.00;;
65230;SDS011;51813;40.666;16.602;2023-07-29T00:33:09;4.05;;;1.85;;
65230;SDS011;51813;40.666;16.602;2023-07-29T00:35:35;4.25;;;2.03;;
65230;SDS011;51813;40.666;16.602;2023-07-29T00:38:01;3.13;;;1.83;;
65230;SDS011;51813;40.666;16.602;2023-07-29T00:40:27;4.63;;;2.10;;
65230;SDS011;51813;40.666;16.602;2023-07-29T00:42:55;3.85;;;1.92;;
65230;SDS011;51813;40.666;16.602;2023-07-29T00:45:20;4.40;;;1.95;;
65230;SDS011;51813;40.666;16.602;2023-07-29T00:47:46;3.58;;;2.00;;
65230;SDS011;51813;40.666;16.602;2023-07-29T00:50:13;4.80;;;1.88;;
65230;SDS011;51813;40.666;16.602;2023-07-29T00:52:40;3.88;;;1.83;;
65230;SDS011;51813;40.666;16.602;2023-07-29T00:55:06;3.85;;;1.95;;
65230;SDS011;51813;40.666;16.602;2023-07-29T00:57:33;5.07;;;2.00;;
65230;SDS011;51813;40.666;16.602;2023-07-29T00:59:59;3.78;;;2.10;;
65230;SDS011;51813;40.666;16.602;2023-07-29T01:02:25;6.90;;;2.78;;
65230;SDS011;51813;40.666;16.602;2023-07-29T01:04:55;4.43;;;2.10;;
65230;SDS011;51813;40.666;16.602;2023-07-29T01:13:26;2.88;;;1.80;;
65230;SDS011;51813;40.666;16.602;2023-07-29T01:18:31;3.40;;;1.90;;
65230;SDS011;51813;40.666;16.602;2023-07-29T01:21:03;4.93;;;2.30;;
65230;SDS011;51813;40.666;16.602;2023-07-29T01:23:33;3.22;;;2.10;;
65230;SDS011;51813;40.666;16.602;2023-07-29T01:26:00;4.10;;;2.20;;
65230;SDS011;51813;40.666;16.602;2023-07-29T01:28:26;4.13;;;1.88;;
65230;SDS011;51813;40.666;16.602;2023-07-29T01:30:55;3.50;;;2.20;;
65230;SDS011;51813;40.666;16.602;2023-07-29T01:33:29;5.28;;;2.53;;
65230;SDS011;51813;40.666;16.602;2023-07-29T01:36:07;4.32;;;2.40;;
65230;SDS011;51813;40.666;16.602;2023-07-29T01:38:38;4.32;;;2.22;;
65230;SDS011;51813;40.666;16.602;2023-07-29T01:41:07;4.35;;;2.08;;
65230;SDS011;51813;40.666;16.602;2023-07-29T01:43:33;4.05;;;2.38;;
65230;SDS011;51813;40.666;16.602;2023-07-29T01:46:06;3.88;;;2.22;;
65230;SDS011;51813;40.666;16.602;2023-07-29T01:48:32;4.57;;;2.50;;
65230;SDS011;51813;40.666;16.602;2023-07-29T01:50:58;4.57;;;2.53;;
65230;SDS011;51813;40.666;16.602;2023-07-29T01:53:23;4.07;;;2.40;;
65230;SDS011;51813;40.666;16.602;2023-07-29T01:55:49;3.88;;;2.10;;
65230;SDS011;51813;40.666;16.602;2023-07-29T01:58:15;4.20;;;2.15;;
65230;SDS011;51813;40.666;16.602;2023-07-29T02:00:40;4.13;;;2.10;;
65230;SDS011;51813;40.666;16.602;2023-07-29T02:03:06;4.43;;;2.40;;
65230;SDS011;51813;40.666;16.602;2023-07-29T02:05:32;4.13;;;2.20;;
65230;SDS011;51813;40.666;16.602;2023-07-29T02:07:58;5.00;;;2.60;;
65230;SDS011;51813;40.666;16.602;2023-07-29T02:10:23;4.32;;;2.42;;
65230;SDS011;51813;40.666;16.602;2023-07-29T02:12:49;3.50;;;2.10;;
65230;SDS011;51813;40.666;16.602;2023-07-29T02:15:14;4.13;;;2.55;;
65230;SDS011;51813;40.666;16.602;2023-07-29T02:17:41;3.50;;;2.30;;
65230;SDS011;51813;40.666;16.602;2023-07-29T02:20:07;3.45;;;2.22;;
65230;SDS011;51813;40.666;16.602;2023-07-29T02:22:33;4.35;;;2.50;;
65230;SDS011;51813;40.666;16.602;2023-07-29T02:24:59;4.57;;;2.20;;
65230;SDS011;51813;40.666;16.602;2023-07-29T02:27:26;3.78;;;2.00;;
65230;SDS011;51813;40.666;16.602;2023-07-29T02:29:52;4.07;;;2.30;;
65230;SDS011;51813;40.666;16.602;2023-07-29T02:32:18;3.60;;;2.17;;
65230;SDS011;51813;40.666;16.602;2023-07-29T02:34:45;3.83;;;2.45;;
65230;SDS011;51813;40.666;16.602;2023-07-29T02:37:11;3.30;;;2.10;;
65230;SDS011;51813;40.666;16.602;2023-07-29T02:39:37;3.60;;;2.17;;
65230;SDS011;51813;40.666;16.602;2023-07-29T02:42:03;4.18;;;2.22;;
65230;SDS011;51813;40.666;16.602;2023-07-29T02:44:29;5.10;;;2.13;;
65230;SDS011;51813;40.666;16.602;2023-07-29T02:46:54;4.32;;;2.20;;
65230;SDS011;51813;40.666;16.602;2023-07-29T02:49:21;4.18;;;2.20;;
65230;SDS011;51813;40.666;16.602;2023-07-29T02:51:48;4.10;;;2.10;;
65230;SDS011;51813;40.666;16.602;2023-07-29T02:54:14;4.30;;;2.30;;
65230;SDS011;51813;40.666;16.602;2023-07-29T02:56:40;4.50;;;2.25;;
65230;SDS011;51813;40.666;16.602;2023-07-29T02:59:05;3.80;;;2.05;;
65230;SDS011;51813;40.666;16.602;2023-07-29T03:01:31;4.72;;;2.30;;
65230;SDS011;51813;40.666;16.602;2023-07-29T03:03:57;4.47;;;2.40;;
65230;SDS011;51813;40.666;16.602;2023-07-29T03:06:22;5.70;;;2.40;;
65230;SDS011;51813;40.666;16.602;2023-07-29T03:08:48;3.55;;;2.20;;
65230;SDS011;51813;40.666;16.602;2023-07-29T03:11:14;3.47;;;1.92;;
65230;SDS011;51813;40.666;16.602;2023-07-29T03:13:41;4.85;;;2.55;;
65230;SDS011;51813;40.666;16.602;2023-07-29T03:16:07;4.50;;;2.50;;
65230;SDS011;51813;40.666;16.602;2023-07-29T03:18:34;4.93;;;2.40;;
65230;SDS011;51813;40.666;16.602;2023-07-29T03:21:00;3.88;;;2.30;;
65230;SDS011;51813;40.666;16.602;2023-07-29T03:23:27;3.58;;;2.17;;
65230;SDS011;51813;40.666;16.602;2023-07-29T03:25:57;3.80;;;2.20;;
65230;SDS011;51813;40.666;16.602;2023-07-29T03:28:25;4.55;;;2.17;;
65230;SDS011;51813;40.666;16.602;2023-07-29T03:30:52;4.18;;;2.30;;
65230;SDS011;51813;40.666;16.602;2023-07-29T03:33:21;4.35;;;2.00;;
65230;SDS011;51813;40.666;16.602;2023-07-29T03:35:47;3.88;;;2.20;;
65230;SDS011;51813;40.666;16.602;2023-07-29T03:38:13;3.55;;;2.22;;
65230;SDS011;51813;40.666;16.602;2023-07-29T03:40:39;3.95;;;2.35;;
65230;SDS011;51813;40.666;16.602;2023-07-29T03:43:06;3.78;;;2.10;;
65230;SDS011;51813;40.666;16.602;2023-07-29T03:45:32;4.53;;;2.30;;
65230;SDS011;51813;40.666;16.602;2023-07-29T03:47:58;4.43;;;2.25;;
65230;SDS011;51813;40.666;16.602;2023-07-29T03:50:24;4.95;;;2.53;;
65230;SDS011;51813;40.666;16.602;2023-07-29T03:52:50;4.70;;;2.22;;
65230;SDS011;51813;40.666;16.602;2023-07-29T03:55:16;4.20;;;1.98;;
65230;SDS011;51813;40.666;16.602;2023-07-29T03:57:42;5.53;;;2.50;;
65230;SDS011;51813;40.666;16.602;2023-07-29T04:00:08;5.50;;;2.15;;
65230;SDS011;51813;40.666;16.602;2023-07-29T04:02:36;4.55;;;2.55;;
65230;SDS011;51813;40.666;16.602;2023-07-29T04:05:03;4.93;;;2.50;;
65230;SDS011;51813;40.666;16.602;2023-07-29T04:07:29;3.53;;;2.17;;
65230;SDS011;51813;40.666;16.602;2023-07-29T04:09:55;4.03;;;2.65;;
65230;SDS011;51813;40.666;16.602;2023-07-29T04:12:22;3.72;;;2.30;;
65230;SDS011;51813;40.666;16.602;2023-07-29T04:14:48;4.68;;;2.40;;
65230;SDS011;51813;40.666;16.602;2023-07-29T04:17:14;3.90;;;2.10;;
65230;SDS011;51813;40.666;16.602;2023-07-29T04:19:40;4.78;;;2.20;;
65230;SDS011;51813;40.666;16.602;2023-07-29T04:22:05;3.95;;;2.10;;
65230;SDS011;51813;40.666;16.602;2023-07-29T04:24:31;4.55;;;2.05;;
65230;SDS011;51813;40.666;16.602;2023-07-29T04:26:57;5.72;;;2.03;;
65230;SDS011;51813;40.666;16.602;2023-07-29T04:29:23;3.50;;;2.03;;
65230;SDS011;51813;40.666;16.602;2023-07-29T04:31:51;4.03;;;1.95;;
65230;SDS011;51813;40.666;16.602;2023-07-29T04:34:18;3.13;;;2.08;;
65230;SDS011;51813;40.666;16.602;2023-07-29T04:36:44;4.03;;;2.38;;
65230;SDS011;51813;40.666;16.602;2023-07-29T04:39:10;4.35;;;1.90;;
65230;SDS011;51813;40.666;16.602;2023-07-29T04:41:36;4.35;;;2.15;;
65230;SDS011;51813;40.666;16.602;2023-07-29T04:44:02;4.82;;;2.17;;
65230;SDS011;51813;40.666;16.602;2023-07-29T04:46:28;3.13;;;2.03;;
65230;SDS011;51813;40.666;16.602;2023-07-29T04:48:53;3.90;;;2.30;;
65230;SDS011;51813;40.666;16.602;2023-07-29T04:51:19;4.80;;;2.15;;
65230;SDS011;51813;40.666;16.602;2023-07-29T04:53:45;4.20;;;2.30;;
65230;SDS011;51813;40.666;16.602;2023-07-29T04:56:11;3.28;;;2.00;;
65230;SDS011;51813;40.666;16.602;2023-07-29T04:58:36;4.97;;;2.00;;
65230;SDS011;51813;40.666;16.602;2023-07-29T05:01:02;4.10;;;2.40;;
65230;SDS011;51813;40.666;16.602;2023-07-29T05:03:28;3.63;;;2.10;;
65230;SDS011;51813;40.666;16.602;2023-07-29T05:05:54;4.00;;;2.30;;
65230;SDS011;51813;40.666;16.602;2023-07-29T05:08:21;5.30;;;2.05;;
65230;SDS011;51813;40.666;16.602;2023-07-29T05:10:50;4.90;;;2.40;;
65230;SDS011;51813;40.666;16.602;2023-07-29T05:13:17;4.68;;;2.30;;
65230;SDS011;51813;40.666;16.602;2023-07-29T05:15:43;4.68;;;2.25;;
65230;SDS011;51813;40.666;16.602;2023-07-29T05:18:09;4.30;;;1.90;;
65230;SDS011;51813;40.666;16.602;2023-07-29T05:20:34;3.47;;;2.30;;
65230;SDS011;51813;40.666;16.602;2023-07-29T05:23:00;4.05;;;2.20;;
65230;SDS011;51813;40.666;16.602;2023-07-29T05:25:26;4.82;;;2.20;;
65230;SDS011;51813;40.666;16.602;2023-07-29T05:27:52;5.90;;;2.47;;
65230;SDS011;51813;40.666;16.602;2023-07-29T05:30:18;5.13;;;2.17;;
65230;SDS011;51813;40.666;16.602;2023-07-29T05:32:43;4.18;;;2.33;;
65230;SDS011;51813;40.666;16.602;2023-07-29T05:35:09;2.90;;;1.98;;
65230;SDS011;51813;40.666;16.602;2023-07-29T05:37:37;3.90;;;2.30;;
65230;SDS011;51813;40.666;16.602;2023-07-29T05:40:05;5.13;;;2.38;;
65230;SDS011;51813;40.666;16.602;2023-07-29T05:42:31;4.03;;;2.17;;
65230;SDS011;51813;40.666;16.602;2023-07-29T05:44:57;5.20;;;2.30;;
65230;SDS011;51813;40.666;16.602;2023-07-29T05:47:23;3.83;;;2.10;;
65230;SDS011;51813;40.666;16.602;2023-07-29T05:49:49;5.43;;;2.35;;
65230;SDS011;51813;40.666;16.602;2023-07-29T05:52:15;6.30;;;2.53;;
65230;SDS011;51813;40.666;16.602;2023-07-29T05:54:40;3.47;;;2.22;;
65230;SDS011;51813;40.666;16.602;2023-07-29T05:57:08;3.88;;;2.13;;
65230;SDS011;51813;40.666;16.602;2023-07-29T05:59:35;4.13;;;2.30;;
65230;SDS011;51813;40.666;16.602;2023-07-29T06:02:00;4.05;;;2.20;;
65230;SDS011;51813;40.666;16.602;2023-07-29T06:04:26;3.80;;;2.10;;
65230;SDS011;51813;40.666;16.602;2023-07-29T06:06:52;3.38;;;2.20;;
65230;SDS011;51813;40.666;16.602;2023-07-29T06:09:18;5.22;;;2.50;;
65230;SDS011;51813;40.666;16.602;2023-07-29T06:11:43;4.38;;;2.35;;
65230;SDS011;51813;40.666;16.602;2023-07-29T06:14:09;4.22;;;2.10;;
65230;SDS011;51813;40.666;16.602;2023-07-29T06:16:35;4.28;;;2.22;;
65230;SDS011;51813;40.666;16.602;2023-07-29T06:19:00;3.38;;;2.00;;
65230;SDS011;51813;40.666;16.602;2023-07-29T06:21:26;3.60;;;2.30;;
65230;SDS011;51813;40.666;16.602;2023-07-29T06:23:52;4.32;;;2.30;;
65230;SDS011;51813;40.666;16.602;2023-07-29T06:26:18;4.95;;;2.55;;
65230;SDS011;51813;40.666;16.602;2023-07-29T06:28:43;4.60;;;2.67;;
65230;SDS011;51813;40.666;16.602;2023-07-29T06:31:09;4.43;;;2.10;;
65230;SDS011;51813;40.666;16.602;2023-07-29T06:33:35;5.30;;;2.38;;
65230;SDS011;51813;40.666;16.602;2023-07-29T06:36:01;4.88;;;2.60;;
65230;SDS011;51813;40.666;16.602;2023-07-29T06:38:26;4.95;;;2.30;;
65230;SDS011;51813;40.666;16.602;2023-07-29T06:40:52;4.55;;;2.70;;
65230;SDS011;51813;40.666;16.602;2023-07-29T06:43:18;4.55;;;2.47;;
65230;SDS011;51813;40.666;16.602;2023-07-29T06:45:43;5.15;;;2.45;;
65230;SDS011;51813;40.666;16.602;2023-07-29T06:48:09;6.15;;;2.60;;
65230;SDS011;51813;40.666;16.602;2023-07-29T06:50:35;6.70;;;2.80;;
65230;SDS011;51813;40.666;16.602;2023-07-29T06:53:00;4.50;;;2.40;;
65230;SDS011;51813;40.666;16.602;2023-07-29T06:55:26;4.22;;;2.60;;
65230;SDS011;51813;40.666;16.602;2023-07-29T06:57:52;6.03;;;2.40;;
65230;SDS011;51813;40.666;16.602;2023-07-29T07:00:17;5.35;;;2.58;;
65230;SDS011;51813;40.666;16.602;2023-07-29T07:02:43;4.78;;;2.88;;
65230;SDS011;51813;40.666;16.602;2023-07-29T07:05:09;4.80;;;3.08;;
65230;SDS011;51813;40.666;16.602;2023-07-29T07:07:35;5.18;;;2.67;;
65230;SDS011;51813;40.666;16.602;2023-07-29T07:10:00;4.85;;;2.80;;
65230;SDS011;51813;40.666;16.602;2023-07-29T07:12:26;6.75;;;2.95;;
65230;SDS011;51813;40.666;16.602;2023-07-29T07:14:52;4.75;;;2.53;;
65230;SDS011;51813;40.666;16.602;2023-07-29T07:17:17;4.30;;;2.60;;
65230;SDS011;51813;40.666;16.602;2023-07-29T07:19:43;5.40;;;2.67;;
65230;SDS011;51813;40.666;16.602;2023-07-29T07:22:09;5.95;;;2.58;;
65230;SDS011;51813;40.666;16.602;2023-07-29T07:24:35;5.03;;;2.50;;
65230;SDS011;51813;40.666;16.602;2023-07-29T07:27:00;6.82;;;2.72;;
65230;SDS011;51813;40.666;16.602;2023-07-29T07:29:27;4.82;;;2.90;;
65230;SDS011;51813;40.666;16.602;2023-07-29T07:31:53;5.28;;;2.70;;
65230;SDS011;51813;40.666;16.602;2023-07-29T07:34:19;3.90;;;2.60;;
65230;SDS011;51813;40.666;16.602;2023-07-29T07:36:45;4.78;;;2.92;;
65230;SDS011;51813;40.666;16.602;2023-07-29T07:39:11;4.03;;;2.42;;
65230;SDS011;51813;40.666;16.602;2023-07-29T07:41:37;5.60;;;2.70;;
65230;SDS011;51813;40.666;16.602;2023-07-29T07:44:03;3.83;;;2.40;;
65230;SDS011;51813;40.666;16.602;2023-07-29T07:46:29;4.95;;;2.63;;
65230;SDS011;51813;40.666;16.602;2023-07-29T07:48:55;4.30;;;2.65;;
65230;SDS011;51813;40.666;16.602;2023-07-29T07:51:20;9.35;;;3.22;;
65230;SDS011;51813;40.666;16.602;2023-07-29T07:53:46;15.27;;;3.35;;
65230;SDS011;51813;40.666;16.602;2023-07-29T07:56:12;12.50;;;3.63;;
65230;SDS011;51813;40.666;16.602;2023-07-29T07:58:37;12.38;;;3.20;;
65230;SDS011;51813;40.666;16.602;2023-07-29T08:01:07;8.20;;;2.80;;
65230;SDS011;51813;40.666;16.602;2023-07-29T08:03:33;9.60;;;3.30;;
65230;SDS011;51813;40.666;16.602;2023-07-29T08:06:00;7.07;;;2.90;;
65230;SDS011;51813;40.666;16.602;2023-07-29T08:08:26;6.72;;;2.85;;
65230;SDS011;51813;40.666;16.602;2023-07-29T08:10:52;5.55;;;2.88;;
65230;SDS011;51813;40.666;16.602;2023-07-29T08:13:20;6.82;;;3.05;;
65230;SDS011;51813;40.666;16.602;2023-07-29T08:15:47;6.07;;;2.90;;
65230;SDS011;51813;40.666;16.602;2023-07-29T08:18:13;3.72;;;2.60;;
65230;SDS011;51813;40.666;16.602;2023-07-29T08:20:39;5.43;;;2.75;;
65230;SDS011;51813;40.666;16.602;2023-07-29T08:23:04;7.25;;;3.10;;
65230;SDS011;51813;40.666;16.602;2023-07-29T08:25:30;5.40;;;2.75;;
65230;SDS011;51813;40.666;16.602;2023-07-29T08:27:56;7.78;;;2.78;;
65230;SDS011;51813;40.666;16.602;2023-07-29T08:30:22;4.63;;;3.10;;
65230;SDS011;51813;40.666;16.602;2023-07-29T08:32:47;4.38;;;2.63;;
65230;SDS011;51813;40.666;16.602;2023-07-29T08:35:13;6.43;;;2.70;;
65230;SDS011;51813;40.666;16.602;2023-07-29T08:37:39;5.45;;;2.45;;
65230;SDS011;51813;40.666;16.602;2023-07-29T08:40:05;5.32;;;3.00;;
65230;SDS011;51813;40.666;16.602;2023-07-29T08:42:31;5.00;;;3.03;;
65230;SDS011;51813;40.666;16.602;2023-07-29T08:45:01;4.43;;;2.53;;
65230;SDS011;51813;40.666;16.602;2023-07-29T08:47:33;5.75;;;2.63;;
65230;SDS011;51813;40.666;16.602;2023-07-29T08:49:59;4.65;;;2.55;;
65230;SDS011;51813;40.666;16.602;2023-07-29T08:52:27;5.80;;;2.85;;
65230;SDS011;51813;40.666;16.602;2023-07-29T08:54:54;5.93;;;2.80;;
65230;SDS011;51813;40.666;16.602;2023-07-29T08:57:21;7.35;;;3.25;;
65230;SDS011;51813;40.666;16.602;2023-07-29T08:59:48;6.88;;;3.10;;
65230;SDS011;51813;40.666;16.602;2023-07-29T09:02:14;8.38;;;3.13;;
65230;SDS011;51813;40.666;16.602;2023-07-29T09:04:39;6.32;;;2.78;;
65230;SDS011;51813;40.666;16.602;2023-07-29T09:07:05;3.88;;;2.47;;
65230;SDS011;51813;40.666;16.602;2023-07-29T09:09:31;6.00;;;2.88;;
65230;SDS011;51813;40.666;16.602;2023-07-29T09:11:57;6.22;;;2.97;;
65230;SDS011;51813;40.666;16.602;2023-07-29T09:14:23;4.80;;;3.17;;
65230;SDS011;51813;40.666;16.602;2023-07-29T09:16:49;4.50;;;2.80;;
65230;SDS011;51813;40.666;16.602;2023-07-29T09:19:15;6.82;;;2.83;;
65230;SDS011;51813;40.666;16.602;2023-07-29T09:21:41;3.90;;;2.70;;
65230;SDS011;51813;40.666;16.602;2023-07-29T09:24:07;6.53;;;2.90;;
65230;SDS011;51813;40.666;16.602;2023-07-29T09:26:33;3.97;;;2.78;;
65230;SDS011;51813;40.666;16.602;2023-07-29T09:28:59;5.50;;;2.72;;
65230;SDS011;51813;40.666;16.602;2023-07-29T09:31:26;4.50;;;2.65;;
65230;SDS011;51813;40.666;16.602;2023-07-29T09:34:00;3.97;;;2.67;;
65230;SDS011;51813;40.666;16.602;2023-07-29T09:36:28;6.43;;;3.03;;
65230;SDS011;51813;40.666;16.602;2023-07-29T09:38:56;4.35;;;2.90;;
65230;SDS011;51813;40.666;16.602;2023-07-29T09:41:25;4.00;;;2.50;;
65230;SDS011;51813;40.666;16.602;2023-07-29T09:43:56;5.63;;;2.80;;
65230;SDS011;51813;40.666;16.602;2023-07-29T09:46:23;5.53;;;2.75;;
65230;SDS011;51813;40.666;16.602;2023-07-29T09:48:53;7.53;;;3.00;;
65230;SDS011;51813;40.666;16.602;2023-07-29T09:51:21;3.95;;;2.70;;
65230;SDS011;51813;40.666;16.602;2023-07-29T09:53:47;5.15;;;3.17;;
65230;SDS011;51813;40.666;16.602;2023-07-29T09:56:13;5.05;;;2.70;;
65230;SDS011;51813;40.666;16.602;2023-07-29T09:58:40;4.43;;;2.53;;
65230;SDS011;51813;40.666;16.602;2023-07-29T10:01:08;4.75;;;2.70;;
65230;SDS011;51813;40.666;16.602;2023-07-29T10:03:35;6.70;;;2.60;;
65230;SDS011;51813;40.666;16.602;2023-07-29T10:06:05;5.18;;;2.70;;
65230;SDS011;51813;40.666;16.602;2023-07-29T10:08:32;4.72;;;2.70;;
65230;SDS011;51813;40.666;16.602;2023-07-29T10:11:03;5.15;;;2.70;;
65230;SDS011;51813;40.666;16.602;2023-07-29T10:13:34;4.80;;;2.58;;
65230;SDS011;51813;40.666;16.602;2023-07-29T10:16:00;4.85;;;2.80;;
65230;SDS011;51813;40.666;16.602;2023-07-29T10:18:30;5.03;;;2.53;;
65230;SDS011;51813;40.666;16.602;2023-07-29T10:20:58;4.53;;;2.67;;
65230;SDS011;51813;40.666;16.602;2023-07-29T10:23:25;5.55;;;2.60;;
65230;SDS011;51813;40.666;16.602;2023-07-29T10:25:57;5.07;;;2.80;;
65230;SDS011;51813;40.666;16.602;2023-07-29T10:28:29;5.38;;;2.60;;
65230;SDS011;51813;40.666;16.602;2023-07-29T10:30:59;7.75;;;3.10;;
65230;SDS011;51813;40.666;16.602;2023-07-29T10:33:25;4.75;;;2.53;;
65230;SDS011;51813;40.666;16.602;2023-07-29T10:35:51;4.50;;;2.80;;
65230;SDS011;51813;40.666;16.602;2023-07-29T10:38:19;4.53;;;2.55;;
65230;SDS011;51813;40.666;16.602;2023-07-29T10:40:48;5.10;;;2.72;;
65230;SDS011;51813;40.666;16.602;2023-07-29T10:43:18;4.40;;;2.60;;
65230;SDS011;51813;40.666;16.602;2023-07-29T10:45:49;4.43;;;2.38;;
65230;SDS011;51813;40.666;16.602;2023-07-29T10:53:46;5.07;;;2.90;;
65230;SDS011;51813;40.666;16.602;2023-07-29T10:56:12;5.95;;;2.95;;
65230;SDS011;51813;40.666;16.602;2023-07-29T10:58:38;6.10;;;2.60;;
65230;SDS011;51813;40.666;16.602;2023-07-29T11:01:13;6.07;;;2.70;;
65230;SDS011;51813;40.666;16.602;2023-07-29T11:15:25;6.22;;;2.90;;
65230;SDS011;51813;40.666;16.602;2023-07-29T11:18:00;5.05;;;2.83;;
65230;SDS011;51813;40.666;16.602;2023-07-29T11:20:30;5.60;;;3.03;;
65230;SDS011;51813;40.666;16.602;2023-07-29T11:22:58;5.90;;;3.00;;
65230;SDS011;51813;40.666;16.602;2023-07-29T11:25:28;3.83;;;2.63;;
65230;SDS011;51813;40.666;16.602;2023-07-29T11:27:56;5.20;;;2.80;;
65230;SDS011;51813;40.666;16.602;2023-07-29T11:30:22;3.80;;;2.70;;
65230;SDS011;51813;40.666;16.602;2023-07-29T11:32:51;6.53;;;2.72;;
65230;SDS011;51813;40.666;16.602;2023-07-29T11:35:18;3.97;;;2.47;;
65230;SDS011;51813;40.666;16.602;2023-07-29T11:37:48;4.38;;;2.60;;
65230;SDS011;51813;40.666;16.602;2023-07-29T11:40:15;5.45;;;2.38;;
65230;SDS011;51813;40.666;16.602;2023-07-29T11:42:41;3.83;;;2.60;;
65230;SDS011;51813;40.666;16.602;2023-07-29T11:45:07;6.10;;;2.70;;
65230;SDS011;51813;40.666;16.602;2023-07-29T11:47:34;4.68;;;2.75;;
65230;SDS011;51813;40.666;16.602;2023-07-29T11:50:09;5.45;;;2.55;;
65230;SDS011;51813;40.666;16.602;2023-07-29T11:52:39;5.32;;;2.75;;
65230;SDS011;51813;40.666;16.602;2023-07-29T11:55:10;4.70;;;2.70;;
65230;SDS011;51813;40.666;16.602;2023-07-29T11:57:38;3.40;;;2.28;;
65230;SDS011;51813;40.666;16.602;2023-07-29T12:00:05;4.18;;;2.53;;
65230;SDS011;51813;40.666;16.602;2023-07-29T12:02:32;3.25;;;2.47;;
65230;SDS011;51813;40.666;16.602;2023-07-29T12:04:59;4.43;;;2.30;;
65230;SDS011;51813;40.666;16.602;2023-07-29T12:07:26;3.92;;;2.60;;
65230;SDS011;51813;40.666;16.602;2023-07-29T12:09:52;3.83;;;2.42;;
65230;SDS011;51813;40.666;16.602;2023-07-29T12:12:18;4.13;;;2.50;;
65230;SDS011;51813;40.666;16.602;2023-07-29T12:14:44;3.05;;;2.10;;
65230;SDS011;51813;40.666;16.602;2023-07-29T12:17:13;3.85;;;2.40;;
65230;SDS011;51813;40.666;16.602;2023-07-29T12:19:39;4.40;;;2.50;;
65230;SDS011;51813;40.666;16.602;2023-07-29T12:22:07;4.68;;;2.40;;
65230;SDS011;51813;40.666;16.602;2023-07-29T12:24:35;5.95;;;2.63;;
65230;SDS011;51813;40.666;16.602;2023-07-29T12:27:02;3.30;;;2.30;;
65230;SDS011;51813;40.666;16.602;2023-07-29T12:29:28;3.28;;;2.17;;
65230;SDS011;51813;40.666;16.602;2023-07-29T12:31:57;3.65;;;2.40;;
65230;SDS011;51813;40.666;16.602;2023-07-29T12:34:25;4.13;;;2.50;;
65230;SDS011;51813;40.666;16.602;2023-07-29T12:36:53;4.13;;;2.33;;
65230;SDS011;51813;40.666;16.602;2023-07-29T12:41:47;4.05;;;2.58;;
65230;SDS011;51813;40.666;16.602;2023-07-29T12:44:15;4.53;;;2.30;;
65230;SDS011;51813;40.666;16.602;2023-07-29T12:46:40;3.78;;;2.40;;
65230;SDS011;51813;40.666;16.602;2023-07-29T12:49:06;3.60;;;2.35;;
65230;SDS011;51813;40.666;16.602;2023-07-29T12:51:32;3.13;;;2.22;;
65230;SDS011;51813;40.666;16.602;2023-07-29T12:53:58;3.50;;;2.30;;
65230;SDS011;51813;40.666;16.602;2023-07-29T12:56:24;4.03;;;2.25;;
65230;SDS011;51813;40.666;16.602;2023-07-29T12:58:49;5.63;;;2.38;;
65230;SDS011;51813;40.666;16.602;2023-07-29T13:01:15;6.15;;;2.58;;
65230;SDS011;51813;40.666;16.602;2023-07-29T13:03:44;3.65;;;2.42;;
65230;SDS011;51813;40.666;16.602;2023-07-29T13:06:10;5.38;;;2.42;;
65230;SDS011;51813;40.666;16.602;2023-07-29T13:08:36;3.58;;;2.15;;
65230;SDS011;51813;40.666;16.602;2023-07-29T13:11:02;3.88;;;2.20;;
65230;SDS011;51813;40.666;16.602;2023-07-29T13:13:29;4.05;;;2.28;;
65230;SDS011;51813;40.666;16.602;2023-07-29T13:15:54;3.75;;;2.40;;
65230;SDS011;51813;40.666;16.602;2023-07-29T13:18:21;3.40;;;2.30;;
65230;SDS011;51813;40.666;16.602;2023-07-29T13:20:46;4.20;;;2.40;;
65230;SDS011;51813;40.666;16.602;2023-07-29T13:23:13;4.55;;;2.47;;
65230;SDS011;51813;40.666;16.602;2023-07-29T13:25:38;4.13;;;2.47;;
65230;SDS011;51813;40.666;16.602;2023-07-29T13:28:04;4.43;;;2.60;;
65230;SDS011;51813;40.666;16.602;2023-07-29T13:30:30;3.42;;;2.03;;
65230;SDS011;51813;40.666;16.602;2023-07-29T13:32:56;3.70;;;2.17;;
65230;SDS011;51813;40.666;16.602;2023-07-29T13:35:21;4.10;;;2.20;;
65230;SDS011;51813;40.666;16.602;2023-07-29T13:37:47;3.88;;;2.25;;
65230;SDS011;51813;40.666;16.602;2023-07-29T13:40:13;4.28;;;2.65;;
65230;SDS011;51813;40.666;16.602;2023-07-29T13:42:38;4.97;;;2.20;;
65230;SDS011;51813;40.666;16.602;2023-07-29T13:45:04;3.40;;;2.30;;
65230;SDS011;51813;40.666;16.602;2023-07-29T13:47:30;5.50;;;2.30;;
65230;SDS011;51813;40.666;16.602;2023-07-29T13:49:56;5.35;;;2.50;;
65230;SDS011;51813;40.666;16.602;2023-07-29T13:52:21;5.55;;;2.55;;
65230;SDS011;51813;40.666;16.602;2023-07-29T13:54:47;4.00;;;2.75;;
65230;SDS011;51813;40.666;16.602;2023-07-29T13:57:13;6.15;;;2.80;;
65230;SDS011;51813;40.666;16.602;2023-07-29T13:59:38;3.72;;;2.30;;
65230;SDS011;51813;40.666;16.602;2023-07-29T14:02:04;4.55;;;2.40;;
65230;SDS011;51813;40.666;16.602;2023-07-29T14:04:31;4.88;;;2.85;;
65230;SDS011;51813;40.666;16.602;2023-07-29T14:06:58;4.00;;;2.55;;
65230;SDS011;51813;40.666;16.602;2023-07-29T14:09:24;5.18;;;3.00;;
65230;SDS011;51813;40.666;16.602;2023-07-29T14:11:50;4.93;;;2.88;;
65230;SDS011;51813;40.666;16.602;2023-07-29T14:14:16;7.18;;;3.00;;
65230;SDS011;51813;40.666;16.602;2023-07-29T14:16:42;4.82;;;2.83;;
65230;SDS011;51813;40.666;16.602;2023-07-29T14:19:08;4.97;;;2.53;;
65230;SDS011;51813;40.666;16.602;2023-07-29T14:21:34;5.95;;;2.85;;
65230;SDS011;51813;40.666;16.602;2023-07-29T14:23:59;4.75;;;2.55;;
65230;SDS011;51813;40.666;16.602;2023-07-29T14:26:25;4.68;;;2.70;;
65230;SDS011;51813;40.666;16.602;2023-07-29T14:28:51;6.00;;;2.88;;
65230;SDS011;51813;40.666;16.602;2023-07-29T14:31:17;4.85;;;2.88;;
65230;SDS011;51813;40.666;16.602;2023-07-29T14:33:43;6.68;;;2.97;;
65230;SDS011;51813;40.666;16.602;2023-07-29T14:36:09;5.20;;;2.88;;
65230;SDS011;51813;40.666;16.602;2023-07-29T14:38:35;6.13;;;3.25;;
65230;SDS011;51813;40.666;16.602;2023-07-29T14:41:02;5.22;;;2.67;;
65230;SDS011;51813;40.666;16.602;2023-07-29T14:43:29;4.78;;;2.90;;
65230;SDS011;51813;40.666;16.602;2023-07-29T14:45:55;5.05;;;3.13;;
65230;SDS011;51813;40.666;16.602;2023-07-29T14:48:21;6.13;;;3.42;;
65230;SDS011;51813;40.666;16.602;2023-07-29T14:50:47;5.22;;;2.78;;
65230;SDS011;51813;40.666;16.602;2023-07-29T14:53:13;5.90;;;2.90;;
65230;SDS011;51813;40.666;16.602;2023-07-29T14:55:39;4.38;;;3.03;;
65230;SDS011;51813;40.666;16.602;2023-07-29T14:58:05;5.07;;;2.80;;